This is the latest recevied weather packets stored in our database for station/object VE7PRT-1. If no packets are shown the sender has not sent any weather packets the latest 10 day(s).
| Time | Temp. | Humidity | Pressure | Rain* | Wind** | Luminosity | Snow |
|---|---|---|---|---|---|---|---|
| 1777922044 | 13.33° C | 95% | 1012.2 hPa | 0 mm | - | - | - |
| 1777921154 | 13.33° C | 95% | 1012.2 hPa | 0 mm | - | - | - |
| 1777920399 | 13.33° C | 95% | 1012.1 hPa | 0 mm | - | - | - |
| 1777919584 | 13.33° C | 95% | 1012.1 hPa | 0 mm | - | - | - |
| 1777918682 | 13.33° C | 95% | 1011.9 hPa | 0 mm | - | - | - |
| 1777917798 | 13.33° C | 95% | 1011.9 hPa | 0 mm | - | - | - |
| 1777916999 | 12.78° C | 95% | 1011.9 hPa | 0 mm | - | - | - |
| 1777916145 | 12.78° C | 95% | 1011.7 hPa | 0 mm | - | - | - |
| 1777915366 | 13.33° C | 95% | 1011.5 hPa | 0 mm | - | - | - |
| 1777914599 | 13.33° C | 94% | 1011.6 hPa | 0 mm | - | - | - |
| 1777913827 | 13.33° C | 93% | 1011.4 hPa | 0 mm | - | - | - |
| 1777912939 | 15.56° C | 88% | 1011.4 hPa | 0 mm | - | - | - |
| 1777912124 | 16.67° C | 85% | 1011.3 hPa | 0 mm | - | - | - |
| 1777911294 | 17.78° C | 80% | 1011.1 hPa | 0 mm | - | - | - |
| 1777910459 | 17.78° C | 80% | 1010.8 hPa | 0 mm | - | - | - |
| 1777909689 | 17.22° C | 79% | 1010.9 hPa | 0 mm | - | - | - |
| 1777908807 | 17.22° C | 86% | 1010.7 hPa | 0 mm | - | - | - |
| 1777907939 | 15.56° C | 94% | 1010.5 hPa | 0 mm | - | - | - |
| 1777907067 | 13.33° C | 97% | 1010.4 hPa | 0 mm | - | - | - |
| 1777906344 | 12.22° C | 97% | 1010.2 hPa | 0 mm | - | - | - |
| 1777905599 | 11.67° C | 97% | 1010.1 hPa | 0 mm | - | - | - |
| 1777904729 | 10.56° C | 96% | 1009.9 hPa | 0 mm | - | - | - |
| 1777903863 | 10.56° C | 96% | 1009.8 hPa | 0 mm | - | - | - |
| 1777903004 | 10° C | 96% | 1009.6 hPa | 0 mm | - | - | - |
| 1777902234 | 10° C | 96% | 1009.6 hPa | 0 mm | - | - | - |
* Rain latest hour (hover to see other rain measurements)
** Current wind speed in m/s (hover to see current wind gust speed)